sensor_id;sensor_type;location;lat;lon;timestamp;temperature;humidity
54796;DHT22;40693;43.884;20.340;2023-04-15T00:01:07;282.40;1996.80
54796;DHT22;40693;43.884;20.340;2023-04-15T00:03:33;282.30;2022.40
54796;DHT22;40693;43.884;20.340;2023-04-15T00:05:59;282.30;2022.40
54796;DHT22;40693;43.884;20.340;2023-04-15T00:08:24;282.30;2022.40
54796;DHT22;40693;43.884;20.340;2023-04-15T00:10:50;282.30;2022.40
54796;DHT22;40693;43.884;20.340;2023-04-15T00:13:16;282.20;2022.40
54796;DHT22;40693;43.884;20.340;2023-04-15T00:15:41;282.10;2048.00
54796;DHT22;40693;43.884;20.340;2023-04-15T00:18:07;282.10;2048.00
54796;DHT22;40693;43.884;20.340;2023-04-15T00:20:34;282.10;2048.00
54796;DHT22;40693;43.884;20.340;2023-04-15T00:23:00;282.20;2048.00
54796;DHT22;40693;43.884;20.340;2023-04-15T00:25:27;282.20;2048.00
54796;DHT22;40693;43.884;20.340;2023-04-15T00:27:53;282.20;2048.00
54796;DHT22;40693;43.884;20.340;2023-04-15T00:30:19;282.20;2048.00
54796;DHT22;40693;43.884;20.340;2023-04-15T00:32:44;282.20;2048.00
54796;DHT22;40693;43.884;20.340;2023-04-15T00:35:11;282.20;2048.00
54796;DHT22;40693;43.884;20.340;2023-04-15T00:37:37;282.20;2048.00
54796;DHT22;40693;43.884;20.340;2023-04-15T00:40:03;282.20;2048.00
54796;DHT22;40693;43.884;20.340;2023-04-15T00:42:30;282.20;2073.60
54796;DHT22;40693;43.884;20.340;2023-04-15T00:44:56;282.10;2073.60
54796;DHT22;40693;43.884;20.340;2023-04-15T00:47:22;282.20;2073.60
54796;DHT22;40693;43.884;20.340;2023-04-15T00:49:48;282.20;2099.20
54796;DHT22;40693;43.884;20.340;2023-04-15T00:52:13;282.20;2099.20
54796;DHT22;40693;43.884;20.340;2023-04-15T00:54:39;282.20;2099.20
54796;DHT22;40693;43.884;20.340;2023-04-15T00:57:05;282.10;2099.20
54796;DHT22;40693;43.884;20.340;2023-04-15T00:59:33;282.10;2099.20
54796;DHT22;40693;43.884;20.340;2023-04-15T01:01:59;282.10;2124.80
54796;DHT22;40693;43.884;20.340;2023-04-15T01:04:24;282.00;2124.80
54796;DHT22;40693;43.884;20.340;2023-04-15T01:06:50;281.80;2150.40
54796;DHT22;40693;43.884;20.340;2023-04-15T01:09:16;281.80;2150.40
54796;DHT22;40693;43.884;20.340;2023-04-15T01:11:42;281.70;2176.00
54796;DHT22;40693;43.884;20.340;2023-04-15T01:14:09;281.60;2201.60
54796;DHT22;40693;43.884;20.340;2023-04-15T01:16:36;256.90;2201.60
54796;DHT22;40693;43.884;20.340;2023-04-15T01:19:06;256.90;2227.20
54796;DHT22;40693;43.884;20.340;2023-04-15T01:21:36;256.80;2227.20
54796;DHT22;40693;43.884;20.340;2023-04-15T01:24:07;256.80;2252.80
54796;DHT22;40693;43.884;20.340;2023-04-15T01:26:36;256.70;2252.80
54796;DHT22;40693;43.884;20.340;2023-04-15T01:29:02;256.70;2252.80
54796;DHT22;40693;43.884;20.340;2023-04-15T01:31:28;256.80;2252.80
54796;DHT22;40693;43.884;20.340;2023-04-15T01:33:53;256.90;2252.80
54796;DHT22;40693;43.884;20.340;2023-04-15T01:36:19;256.90;2252.80
54796;DHT22;40693;43.884;20.340;2023-04-15T01:38:45;281.60;2278.40
54796;DHT22;40693;43.884;20.340;2023-04-15T01:41:13;256.90;2252.80
54796;DHT22;40693;43.884;20.340;2023-04-15T01:43:38;256.90;2252.80
54796;DHT22;40693;43.884;20.340;2023-04-15T01:46:04;281.60;2278.40
54796;DHT22;40693;43.884;20.340;2023-04-15T01:48:31;281.60;2278.40
54796;DHT22;40693;43.884;20.340;2023-04-15T01:50:57;281.60;2278.40
54796;DHT22;40693;43.884;20.340;2023-04-15T01:53:24;281.70;2278.40
54796;DHT22;40693;43.884;20.340;2023-04-15T01:55:50;281.70;2278.40
54796;DHT22;40693;43.884;20.340;2023-04-15T01:58:17;281.80;2278.40
54796;DHT22;40693;43.884;20.340;2023-04-15T02:00:43;281.80;2278.40
54796;DHT22;40693;43.884;20.340;2023-04-15T02:03:09;281.80;2278.40
54796;DHT22;40693;43.884;20.340;2023-04-15T02:05:35;281.70;2278.40
54796;DHT22;40693;43.884;20.340;2023-04-15T02:08:01;281.60;2278.40
54796;DHT22;40693;43.884;20.340;2023-04-15T02:10:28;281.60;2278.40
54796;DHT22;40693;43.884;20.340;2023-04-15T02:12:54;256.90;2252.80
54796;DHT22;40693;43.884;20.340;2023-04-15T02:15:19;256.80;2252.80
54796;DHT22;40693;43.884;20.340;2023-04-15T02:17:45;256.80;2252.80
54796;DHT22;40693;43.884;20.340;2023-04-15T02:20:16;256.60;2252.80
54796;DHT22;40693;43.884;20.340;2023-04-15T02:22:42;256.40;2252.80
54796;DHT22;40693;43.884;20.340;2023-04-15T02:25:08;256.30;2252.80
54796;DHT22;40693;43.884;20.340;2023-04-15T02:27:37;256.30;2252.80
54796;DHT22;40693;43.884;20.340;2023-04-15T02:30:03;256.30;2252.80
54796;DHT22;40693;43.884;20.340;2023-04-15T02:32:28;256.30;2252.80
54796;DHT22;40693;43.884;20.340;2023-04-15T02:34:54;256.30;2252.80
54796;DHT22;40693;43.884;20.340;2023-04-15T02:37:20;256.40;2252.80
54796;DHT22;40693;43.884;20.340;2023-04-15T02:39:46;256.30;2252.80
54796;DHT22;40693;43.884;20.340;2023-04-15T02:42:12;256.40;2252.80
54796;DHT22;40693;43.884;20.340;2023-04-15T02:44:37;256.40;2252.80
54796;DHT22;40693;43.884;20.340;2023-04-15T02:47:03;256.40;2252.80
54796;DHT22;40693;43.884;20.340;2023-04-15T02:49:31;256.40;2252.80
54796;DHT22;40693;43.884;20.340;2023-04-15T02:51:57;256.40;2252.80
54796;DHT22;40693;43.884;20.340;2023-04-15T02:54:25;256.40;2252.80
54796;DHT22;40693;43.884;20.340;2023-04-15T02:56:53;256.40;2252.80
54796;DHT22;40693;43.884;20.340;2023-04-15T02:59:21;256.40;2252.80
54796;DHT22;40693;43.884;20.340;2023-04-15T03:01:46;256.30;2252.80
54796;DHT22;40693;43.884;20.340;2023-04-15T03:04:12;256.20;2252.80
54796;DHT22;40693;43.884;20.340;2023-04-15T03:06:38;256.00;2252.80
54796;DHT22;40693;43.884;20.340;2023-04-15T03:09:04;231.30;2252.80
54796;DHT22;40693;43.884;20.340;2023-04-15T03:11:30;231.20;2252.80
54796;DHT22;40693;43.884;20.340;2023-04-15T03:13:56;231.10;2252.80
54796;DHT22;40693;43.884;20.340;2023-04-15T03:16:23;231.00;2252.80
54796;DHT22;40693;43.884;20.340;2023-04-15T03:18:49;231.00;2252.80
54796;DHT22;40693;43.884;20.340;2023-04-15T03:21:15;231.00;2252.80
54796;DHT22;40693;43.884;20.340;2023-04-15T03:23:40;231.00;2252.80
54796;DHT22;40693;43.884;20.340;2023-04-15T03:26:06;231.10;2252.80
54796;DHT22;40693;43.884;20.340;2023-04-15T03:28:32;231.20;2252.80
54796;DHT22;40693;43.884;20.340;2023-04-15T03:30:58;231.20;2252.80
54796;DHT22;40693;43.884;20.340;2023-04-15T03:33:24;231.20;2252.80
54796;DHT22;40693;43.884;20.340;2023-04-15T03:35:50;231.30;2252.80
54796;DHT22;40693;43.884;20.340;2023-04-15T03:38:16;231.30;2252.80
54796;DHT22;40693;43.884;20.340;2023-04-15T03:40:42;231.30;2252.80
54796;DHT22;40693;43.884;20.340;2023-04-15T03:43:08;231.20;2252.80
54796;DHT22;40693;43.884;20.340;2023-04-15T03:45:34;231.20;2252.80
54796;DHT22;40693;43.884;20.340;2023-04-15T03:48:00;231.20;2252.80
54796;DHT22;40693;43.884;20.340;2023-04-15T03:50:25;231.20;2252.80
54796;DHT22;40693;43.884;20.340;2023-04-15T03:52:52;231.20;2252.80
54796;DHT22;40693;43.884;20.340;2023-04-15T03:55:17;231.20;2252.80
54796;DHT22;40693;43.884;20.340;2023-04-15T03:57:44;231.20;2252.80
54796;DHT22;40693;43.884;20.340;2023-04-15T04:00:10;231.20;2252.80
54796;DHT22;40693;43.884;20.340;2023-04-15T04:02:36;231.30;2252.80
54796;DHT22;40693;43.884;20.340;2023-04-15T04:05:01;231.30;2252.80
54796;DHT22;40693;43.884;20.340;2023-04-15T04:07:27;231.20;2252.80
54796;DHT22;40693;43.884;20.340;2023-04-15T04:09:53;231.10;2252.80
54796;DHT22;40693;43.884;20.340;2023-04-15T04:12:19;231.00;2252.80
54796;DHT22;40693;43.884;20.340;2023-04-15T04:14:44;231.00;2252.80
54796;DHT22;40693;43.884;20.340;2023-04-15T04:17:10;231.00;2252.80
54796;DHT22;40693;43.884;20.340;2023-04-15T04:19:36;231.00;2252.80
54796;DHT22;40693;43.884;20.340;2023-04-15T04:22:01;231.00;2252.80
54796;DHT22;40693;43.884;20.340;2023-04-15T04:24:27;231.00;2252.80
54796;DHT22;40693;43.884;20.340;2023-04-15T04:26:53;231.00;2252.80
54796;DHT22;40693;43.884;20.340;2023-04-15T04:29:18;231.00;2252.80
54796;DHT22;40693;43.884;20.340;2023-04-15T04:31:44;231.00;2252.80
54796;DHT22;40693;43.884;20.340;2023-04-15T04:34:11;231.10;2252.80
54796;DHT22;40693;43.884;20.340;2023-04-15T04:36:37;230.90;2252.80
54796;DHT22;40693;43.884;20.340;2023-04-15T04:39:02;231.00;2252.80
54796;DHT22;40693;43.884;20.340;2023-04-15T04:41:28;230.90;2252.80
54796;DHT22;40693;43.884;20.340;2023-04-15T04:43:54;230.90;2252.80
54796;DHT22;40693;43.884;20.340;2023-04-15T04:46:20;230.80;2252.80
54796;DHT22;40693;43.884;20.340;2023-04-15T04:48:46;231.00;2252.80
54796;DHT22;40693;43.884;20.340;2023-04-15T04:51:12;230.90;2252.80
54796;DHT22;40693;43.884;20.340;2023-04-15T04:53:37;230.90;2252.80
54796;DHT22;40693;43.884;20.340;2023-04-15T04:56:03;231.00;2252.80
54796;DHT22;40693;43.884;20.340;2023-04-15T04:58:29;231.10;2252.80
54796;DHT22;40693;43.884;20.340;2023-04-15T05:00:55;231.10;2252.80
54796;DHT22;40693;43.884;20.340;2023-04-15T05:03:21;231.10;2252.80
54796;DHT22;40693;43.884;20.340;2023-04-15T05:05:47;231.20;2252.80
54796;DHT22;40693;43.884;20.340;2023-04-15T05:08:14;231.20;2252.80
54796;DHT22;40693;43.884;20.340;2023-04-15T05:10:40;231.20;2252.80
54796;DHT22;40693;43.884;20.340;2023-04-15T05:13:05;231.20;2252.80
54796;DHT22;40693;43.884;20.340;2023-04-15T05:15:31;231.10;2252.80
54796;DHT22;40693;43.884;20.340;2023-04-15T05:17:57;231.10;2252.80
54796;DHT22;40693;43.884;20.340;2023-04-15T05:20:23;231.20;2252.80
54796;DHT22;40693;43.884;20.340;2023-04-15T05:22:49;231.20;2252.80
54796;DHT22;40693;43.884;20.340;2023-04-15T05:25:14;231.20;2252.80
54796;DHT22;40693;43.884;20.340;2023-04-15T05:27:40;231.20;2252.80
54796;DHT22;40693;43.884;20.340;2023-04-15T05:30:07;231.30;2252.80
54796;DHT22;40693;43.884;20.340;2023-04-15T05:32:33;256.00;2252.80
54796;DHT22;40693;43.884;20.340;2023-04-15T05:34:59;256.00;2252.80
54796;DHT22;40693;43.884;20.340;2023-04-15T05:37:25;256.10;2252.80
54796;DHT22;40693;43.884;20.340;2023-04-15T05:39:50;256.10;2252.80
54796;DHT22;40693;43.884;20.340;2023-04-15T05:42:17;256.20;2252.80
54796;DHT22;40693;43.884;20.340;2023-04-15T05:44:42;256.30;2252.80
54796;DHT22;40693;43.884;20.340;2023-04-15T05:47:08;256.40;2252.80
54796;DHT22;40693;43.884;20.340;2023-04-15T05:49:35;256.60;2252.80
54796;DHT22;40693;43.884;20.340;2023-04-15T05:52:01;256.60;2252.80
54796;DHT22;40693;43.884;20.340;2023-04-15T05:54:27;256.60;2252.80
54796;DHT22;40693;43.884;20.340;2023-04-15T05:56:53;256.60;2252.80
54796;DHT22;40693;43.884;20.340;2023-04-15T05:59:19;256.70;2252.80
54796;DHT22;40693;43.884;20.340;2023-04-15T06:01:45;256.80;2252.80
54796;DHT22;40693;43.884;20.340;2023-04-15T06:04:11;256.80;2252.80
54796;DHT22;40693;43.884;20.340;2023-04-15T06:06:37;281.60;2278.40
54796;DHT22;40693;43.884;20.340;2023-04-15T06:09:03;281.60;2278.40
54796;DHT22;40693;43.884;20.340;2023-04-15T06:11:29;281.60;2278.40
54796;DHT22;40693;43.884;20.340;2023-04-15T06:13:55;281.70;2278.40
54796;DHT22;40693;43.884;20.340;2023-04-15T06:16:21;281.80;2278.40
54796;DHT22;40693;43.884;20.340;2023-04-15T06:18:47;281.70;2278.40
54796;DHT22;40693;43.884;20.340;2023-04-15T06:21:14;281.70;2278.40
54796;DHT22;40693;43.884;20.340;2023-04-15T06:23:40;281.80;2278.40
54796;DHT22;40693;43.884;20.340;2023-04-15T06:26:06;281.90;2278.40
54796;DHT22;40693;43.884;20.340;2023-04-15T06:28:32;282.00;2278.40
54796;DHT22;40693;43.884;20.340;2023-04-15T06:30:58;282.10;2278.40
54796;DHT22;40693;43.884;20.340;2023-04-15T06:33:23;282.20;2278.40
54796;DHT22;40693;43.884;20.340;2023-04-15T06:35:49;282.30;2278.40
54796;DHT22;40693;43.884;20.340;2023-04-15T06:38:15;282.40;2278.40
54796;DHT22;40693;43.884;20.340;2023-04-15T06:40:41;282.50;2278.40
54796;DHT22;40693;43.884;20.340;2023-04-15T06:43:07;282.50;2278.40
54796;DHT22;40693;43.884;20.340;2023-04-15T06:45:33;307.30;2304.00
54796;DHT22;40693;43.884;20.340;2023-04-15T06:47:59;307.40;2304.00
54796;DHT22;40693;43.884;20.340;2023-04-15T06:50:25;307.50;2304.00
54796;DHT22;40693;43.884;20.340;2023-04-15T06:52:52;307.60;2304.00
54796;DHT22;40693;43.884;20.340;2023-04-15T06:55:18;307.60;2304.00
54796;DHT22;40693;43.884;20.340;2023-04-15T06:57:44;307.80;2304.00
54796;DHT22;40693;43.884;20.340;2023-04-15T07:00:10;307.80;2304.00
54796;DHT22;40693;43.884;20.340;2023-04-15T07:02:36;308.00;2304.00
54796;DHT22;40693;43.884;20.340;2023-04-15T07:05:03;308.00;2304.00
54796;DHT22;40693;43.884;20.340;2023-04-15T07:07:29;308.10;2304.00
54796;DHT22;40693;43.884;20.340;2023-04-15T07:09:54;308.10;2304.00
54796;DHT22;40693;43.884;20.340;2023-04-15T07:12:20;332.80;2329.60
54796;DHT22;40693;43.884;20.340;2023-04-15T07:14:46;332.90;2329.60
54796;DHT22;40693;43.884;20.340;2023-04-15T07:17:12;333.00;2329.60
54796;DHT22;40693;43.884;20.340;2023-04-15T07:19:37;333.00;2329.60
54796;DHT22;40693;43.884;20.340;2023-04-15T07:22:03;333.20;2329.60
54796;DHT22;40693;43.884;20.340;2023-04-15T07:24:29;333.30;2329.60
54796;DHT22;40693;43.884;20.340;2023-04-15T07:26:55;333.40;2329.60
54796;DHT22;40693;43.884;20.340;2023-04-15T07:29:23;333.50;2329.60
54796;DHT22;40693;43.884;20.340;2023-04-15T07:31:49;333.70;2329.60
54796;DHT22;40693;43.884;20.340;2023-04-15T07:34:15;358.40;2329.60
54796;DHT22;40693;43.884;20.340;2023-04-15T07:36:41;358.60;2329.60
54796;DHT22;40693;43.884;20.340;2023-04-15T07:39:07;358.80;2329.60
54796;DHT22;40693;43.884;20.340;2023-04-15T07:41:32;359.00;2329.60
54796;DHT22;40693;43.884;20.340;2023-04-15T07:43:58;359.10;2252.80
54796;DHT22;40693;43.884;20.340;2023-04-15T07:46:25;359.30;2252.80
54796;DHT22;40693;43.884;20.340;2023-04-15T07:48:52;384.10;2227.20
54796;DHT22;40693;43.884;20.340;2023-04-15T07:51:20;384.20;2150.40
54796;DHT22;40693;43.884;20.340;2023-04-15T07:53:48;384.40;2099.20
54796;DHT22;40693;43.884;20.340;2023-04-15T07:56:14;384.60;2124.80
54796;DHT22;40693;43.884;20.340;2023-04-15T07:58:40;384.70;2048.00
54796;DHT22;40693;43.884;20.340;2023-04-15T08:01:07;384.90;1945.60
54796;DHT22;40693;43.884;20.340;2023-04-15T08:03:33;384.90;1945.60
54796;DHT22;40693;43.884;20.340;2023-04-15T08:05:58;409.60;1971.20
54796;DHT22;40693;43.884;20.340;2023-04-15T08:08:24;409.70;1971.20
54796;DHT22;40693;43.884;20.340;2023-04-15T08:10:50;409.70;1920.00
54796;DHT22;40693;43.884;20.340;2023-04-15T08:13:17;409.80;1920.00
54796;DHT22;40693;43.884;20.340;2023-04-15T08:15:42;409.90;1945.60
54796;DHT22;40693;43.884;20.340;2023-04-15T08:18:08;409.90;1894.40
54796;DHT22;40693;43.884;20.340;2023-04-15T08:20:34;409.80;1894.40
54796;DHT22;40693;43.884;20.340;2023-04-15T08:23:00;409.80;1894.40
54796;DHT22;40693;43.884;20.340;2023-04-15T08:25:25;409.80;1868.80
54796;DHT22;40693;43.884;20.340;2023-04-15T08:27:54;410.00;1868.80
54796;DHT22;40693;43.884;20.340;2023-04-15T08:30:20;410.00;1894.40
54796;DHT22;40693;43.884;20.340;2023-04-15T08:32:46;410.20;1894.40
54796;DHT22;40693;43.884;20.340;2023-04-15T08:35:12;410.30;1920.00
54796;DHT22;40693;43.884;20.340;2023-04-15T08:37:38;410.40;1843.20
54796;DHT22;40693;43.884;20.340;2023-04-15T08:40:04;410.50;1868.80
54796;DHT22;40693;43.884;20.340;2023-04-15T08:42:31;410.50;1843.20
54796;DHT22;40693;43.884;20.340;2023-04-15T08:44:59;410.50;1868.80
54796;DHT22;40693;43.884;20.340;2023-04-15T08:47:29;410.50;1894.40
54796;DHT22;40693;43.884;20.340;2023-04-15T08:49:59;410.40;1868.80
54796;DHT22;40693;43.884;20.340;2023-04-15T08:52:29;410.50;1868.80
54796;DHT22;40693;43.884;20.340;2023-04-15T08:54:56;435.20;1868.80
54796;DHT22;40693;43.884;20.340;2023-04-15T08:57:28;435.20;1843.20
54796;DHT22;40693;43.884;20.340;2023-04-15T08:59:57;435.20;1843.20
54796;DHT22;40693;43.884;20.340;2023-04-15T09:02:24;435.30;1868.80
54796;DHT22;40693;43.884;20.340;2023-04-15T09:04:50;435.40;1817.60
54796;DHT22;40693;43.884;20.340;2023-04-15T09:07:16;435.60;1792.00
54796;DHT22;40693;43.884;20.340;2023-04-15T09:09:42;435.70;1766.40
54796;DHT22;40693;43.884;20.340;2023-04-15T09:12:10;435.70;1766.40
54796;DHT22;40693;43.884;20.340;2023-04-15T09:14:39;435.80;1766.40
54796;DHT22;40693;43.884;20.340;2023-04-15T09:17:05;435.80;1766.40
54796;DHT22;40693;43.884;20.340;2023-04-15T09:19:34;436.10;1792.00
54796;DHT22;40693;43.884;20.340;2023-04-15T09:22:01;436.10;1766.40
54796;DHT22;40693;43.884;20.340;2023-04-15T09:24:38;460.80;1792.00
54796;DHT22;40693;43.884;20.340;2023-04-15T09:27:04;460.90;1715.20
54796;DHT22;40693;43.884;20.340;2023-04-15T09:29:30;461.00;1715.20
54796;DHT22;40693;43.884;20.340;2023-04-15T09:32:08;461.20;1587.20
54796;DHT22;40693;43.884;20.340;2023-04-15T09:34:37;461.20;1587.20
54796;DHT22;40693;43.884;20.340;2023-04-15T09:37:03;461.30;1587.20
54796;DHT22;40693;43.884;20.340;2023-04-15T09:39:53;461.40;1638.40
54796;DHT22;40693;43.884;20.340;2023-04-15T09:42:19;461.50;1612.80
54796;DHT22;40693;43.884;20.340;2023-04-15T09:44:49;461.60;1587.20
54796;DHT22;40693;43.884;20.340;2023-04-15T09:47:31;486.40;1510.40
54796;DHT22;40693;43.884;20.340;2023-04-15T09:49:58;461.40;1484.80
54796;DHT22;40693;43.884;20.340;2023-04-15T09:52:24;461.30;1484.80
54796;DHT22;40693;43.884;20.340;2023-04-15T09:54:52;461.40;1510.40
54796;DHT22;40693;43.884;20.340;2023-04-15T09:57:21;461.40;1433.60
54796;DHT22;40693;43.884;20.340;2023-04-15T09:59:48;461.30;1459.20
54796;DHT22;40693;43.884;20.340;2023-04-15T10:02:15;461.20;1561.60
54796;DHT22;40693;43.884;20.340;2023-04-15T10:04:43;461.20;1561.60
54796;DHT22;40693;43.884;20.340;2023-04-15T10:07:11;461.20;1561.60
54796;DHT22;40693;43.884;20.340;2023-04-15T10:09:38;461.10;1484.80
54796;DHT22;40693;43.884;20.340;2023-04-15T10:12:04;461.20;1587.20
54796;DHT22;40693;43.884;20.340;2023-04-15T10:14:33;461.30;1587.20
54796;DHT22;40693;43.884;20.340;2023-04-15T10:17:01;461.40;1638.40
54796;DHT22;40693;43.884;20.340;2023-04-15T10:19:30;461.40;1561.60
54796;DHT22;40693;43.884;20.340;2023-04-15T10:21:58;461.40;1561.60
54796;DHT22;40693;43.884;20.340;2023-04-15T10:24:24;461.50;1561.60
54796;DHT22;40693;43.884;20.340;2023-04-15T10:26:51;461.60;1536.00
54796;DHT22;40693;43.884;20.340;2023-04-15T10:29:17;461.70;1510.40
54796;DHT22;40693;43.884;20.340;2023-04-15T10:31:44;461.70;1484.80
54796;DHT22;40693;43.884;20.340;2023-04-15T10:34:11;461.70;1510.40
54796;DHT22;40693;43.884;20.340;2023-04-15T10:36:37;461.60;1459.20
54796;DHT22;40693;43.884;20.340;2023-04-15T10:42:11;486.40;1484.80
54796;DHT22;40693;43.884;20.340;2023-04-15T10:44:38;486.50;1484.80
54796;DHT22;40693;43.884;20.340;2023-04-15T10:47:10;486.50;1484.80
54796;DHT22;40693;43.884;20.340;2023-04-15T10:52:11;486.80;1510.40
54796;DHT22;40693;43.884;20.340;2023-04-15T10:54:38;486.80;1459.20
54796;DHT22;40693;43.884;20.340;2023-04-15T11:05:09;512.00;1459.20
54796;DHT22;40693;43.884;20.340;2023-04-15T11:07:53;512.00;1280.00
54796;DHT22;40693;43.884;20.340;2023-04-15T11:12:54;487.10;1254.40
54796;DHT22;40693;43.884;20.340;2023-04-15T11:15:34;487.20;1280.00
54796;DHT22;40693;43.884;20.340;2023-04-15T11:18:20;487.20;1254.40
54796;DHT22;40693;43.884;20.340;2023-04-15T11:20:48;487.20;1254.40
54796;DHT22;40693;43.884;20.340;2023-04-15T11:25:58;512.00;1305.60
54796;DHT22;40693;43.884;20.340;2023-04-15T11:28:29;512.10;1280.00
54796;DHT22;40693;43.884;20.340;2023-04-15T11:30:55;512.00;1254.40
54796;DHT22;40693;43.884;20.340;2023-04-15T11:33:22;512.10;1254.40
54796;DHT22;40693;43.884;20.340;2023-04-15T11:35:49;512.00;1254.40
54796;DHT22;40693;43.884;20.340;2023-04-15T11:38:15;512.10;1254.40
54796;DHT22;40693;43.884;20.340;2023-04-15T11:40:44;512.10;1254.40
54796;DHT22;40693;43.884;20.340;2023-04-15T11:43:16;512.10;1228.80
54796;DHT22;40693;43.884;20.340;2023-04-15T11:45:57;512.10;1254.40
54796;DHT22;40693;43.884;20.340;2023-04-15T11:48:33;512.20;1228.80
54796;DHT22;40693;43.884;20.340;2023-04-15T11:51:04;512.20;1254.40
54796;DHT22;40693;43.884;20.340;2023-04-15T11:53:37;512.00;1280.00
54796;DHT22;40693;43.884;20.340;2023-04-15T11:56:04;512.00;1280.00
54796;DHT22;40693;43.884;20.340;2023-04-15T11:58:30;512.00;1280.00
54796;DHT22;40693;43.884;20.340;2023-04-15T12:00:59;487.30;1254.40
54796;DHT22;40693;43.884;20.340;2023-04-15T12:03:48;487.20;1228.80
54796;DHT22;40693;43.884;20.340;2023-04-15T12:06:24;487.10;1228.80
54796;DHT22;40693;43.884;20.340;2023-04-15T12:13:54;487.00;1254.40
54796;DHT22;40693;43.884;20.340;2023-04-15T12:16:22;486.90;1254.40
54796;DHT22;40693;43.884;20.340;2023-04-15T12:18:56;487.00;1254.40
54796;DHT22;40693;43.884;20.340;2023-04-15T12:21:23;487.10;1254.40
54796;DHT22;40693;43.884;20.340;2023-04-15T12:23:51;487.00;1254.40
54796;DHT22;40693;43.884;20.340;2023-04-15T12:26:18;487.00;1228.80
54796;DHT22;40693;43.884;20.340;2023-04-15T12:29:09;486.90;1228.80
54796;DHT22;40693;43.884;20.340;2023-04-15T12:31:43;487.10;1254.40
54796;DHT22;40693;43.884;20.340;2023-04-15T12:34:10;487.10;1228.80
54796;DHT22;40693;43.884;20.340;2023-04-15T12:36:36;487.10;1254.40
54796;DHT22;40693;43.884;20.340;2023-04-15T12:39:03;487.00;1254.40
54796;DHT22;40693;43.884;20.340;2023-04-15T12:41:30;487.00;1228.80
54796;DHT22;40693;43.884;20.340;2023-04-15T12:43:56;487.10;1228.80
54796;DHT22;40693;43.884;20.340;2023-04-15T12:46:22;487.10;1254.40
54796;DHT22;40693;43.884;20.340;2023-04-15T12:48:48;487.10;1254.40
54796;DHT22;40693;43.884;20.340;2023-04-15T12:51:14;487.00;1254.40
54796;DHT22;40693;43.884;20.340;2023-04-15T12:53:40;487.00;1254.40
54796;DHT22;40693;43.884;20.340;2023-04-15T12:56:06;487.00;1254.40
54796;DHT22;40693;43.884;20.340;2023-04-15T12:58:32;486.90;1280.00
54796;DHT22;40693;43.884;20.340;2023-04-15T13:00:58;487.10;1280.00
54796;DHT22;40693;43.884;20.340;2023-04-15T13:03:23;487.10;1254.40
54796;DHT22;40693;43.884;20.340;2023-04-15T13:05:49;487.20;1280.00
54796;DHT22;40693;43.884;20.340;2023-04-15T13:08:15;487.20;1280.00
54796;DHT22;40693;43.884;20.340;2023-04-15T13:10:41;487.30;1254.40
54796;DHT22;40693;43.884;20.340;2023-04-15T13:13:07;512.00;1280.00
54796;DHT22;40693;43.884;20.340;2023-04-15T13:15:33;512.10;1228.80
54796;DHT22;40693;43.884;20.340;2023-04-15T13:18:00;512.30;1228.80
54796;DHT22;40693;43.884;20.340;2023-04-15T13:20:26;512.60;1203.20
54796;DHT22;40693;43.884;20.340;2023-04-15T13:22:52;512.90;1203.20
54796;DHT22;40693;43.884;20.340;2023-04-15T13:25:19;537.60;1254.40
54796;DHT22;40693;43.884;20.340;2023-04-15T13:27:44;537.80;1254.40
54796;DHT22;40693;43.884;20.340;2023-04-15T13:30:11;538.00;1254.40
54796;DHT22;40693;43.884;20.340;2023-04-15T13:32:36;538.30;1305.60
54796;DHT22;40693;43.884;20.340;2023-04-15T13:35:02;538.50;1280.00
54796;DHT22;40693;43.884;20.340;2023-04-15T13:37:30;563.30;1228.80
54796;DHT22;40693;43.884;20.340;2023-04-15T13:39:56;563.40;1203.20
54796;DHT22;40693;43.884;20.340;2023-04-15T13:42:22;563.30;1203.20
54796;DHT22;40693;43.884;20.340;2023-04-15T13:44:51;563.40;1228.80
54796;DHT22;40693;43.884;20.340;2023-04-15T13:47:18;563.40;1228.80
54796;DHT22;40693;43.884;20.340;2023-04-15T13:49:44;563.30;1254.40
54796;DHT22;40693;43.884;20.340;2023-04-15T13:52:11;563.40;1305.60
54796;DHT22;40693;43.884;20.340;2023-04-15T13:54:37;563.20;1228.80
54796;DHT22;40693;43.884;20.340;2023-04-15T13:57:03;538.50;1228.80
54796;DHT22;40693;43.884;20.340;2023-04-15T13:59:29;538.30;1254.40
54796;DHT22;40693;43.884;20.340;2023-04-15T14:01:55;538.10;1280.00
54796;DHT22;40693;43.884;20.340;2023-04-15T14:04:21;538.00;1305.60
54796;DHT22;40693;43.884;20.340;2023-04-15T14:06:46;537.80;1280.00
54796;DHT22;40693;43.884;20.340;2023-04-15T14:09:12;537.80;1305.60
54796;DHT22;40693;43.884;20.340;2023-04-15T14:11:38;537.70;1305.60
54796;DHT22;40693;43.884;20.340;2023-04-15T14:14:04;537.60;1280.00
54796;DHT22;40693;43.884;20.340;2023-04-15T14:16:33;512.90;1254.40
54796;DHT22;40693;43.884;20.340;2023-04-15T14:19:00;512.70;1254.40
54796;DHT22;40693;43.884;20.340;2023-04-15T14:21:26;512.70;1280.00
54796;DHT22;40693;43.884;20.340;2023-04-15T14:23:56;512.80;1280.00
54796;DHT22;40693;43.884;20.340;2023-04-15T14:26:22;512.70;1280.00
54796;DHT22;40693;43.884;20.340;2023-04-15T14:28:47;512.70;1280.00
54796;DHT22;40693;43.884;20.340;2023-04-15T14:31:13;512.80;1305.60
54796;DHT22;40693;43.884;20.340;2023-04-15T14:33:39;512.70;1305.60
54796;DHT22;40693;43.884;20.340;2023-04-15T14:36:06;512.60;1305.60
54796;DHT22;40693;43.884;20.340;2023-04-15T14:38:34;512.60;1280.00
54796;DHT22;40693;43.884;20.340;2023-04-15T14:41:06;512.60;1331.20
54796;DHT22;40693;43.884;20.340;2023-04-15T14:43:32;512.60;1331.20
54796;DHT22;40693;43.884;20.340;2023-04-15T14:45:58;512.70;1356.80
54796;DHT22;40693;43.884;20.340;2023-04-15T14:48:24;512.50;1356.80
54796;DHT22;40693;43.884;20.340;2023-04-15T14:50:51;512.50;1382.40
54796;DHT22;40693;43.884;20.340;2023-04-15T14:53:17;512.50;1356.80
54796;DHT22;40693;43.884;20.340;2023-04-15T14:55:42;512.40;1356.80
54796;DHT22;40693;43.884;20.340;2023-04-15T14:58:09;512.30;1356.80